sensor_id;sensor_type;location;lat;lon;timestamp;P1;durP1;ratioP1;P2;durP2;ratioP2
45338;SDS011;31071;51.478;5.710;2024-03-08T00:02:16;49.05;;;25.88;;
45338;SDS011;31071;51.478;5.710;2024-03-08T00:04:42;51.70;;;24.80;;
45338;SDS011;31071;51.478;5.710;2024-03-08T00:07:09;50.05;;;24.50;;
45338;SDS011;31071;51.478;5.710;2024-03-08T00:09:35;48.00;;;24.25;;
45338;SDS011;31071;51.478;5.710;2024-03-08T00:12:01;52.78;;;24.95;;
45338;SDS011;31071;51.478;5.710;2024-03-08T00:14:27;47.28;;;25.33;;
45338;SDS011;31071;51.478;5.710;2024-03-08T00:16:53;42.60;;;23.98;;
45338;SDS011;31071;51.478;5.710;2024-03-08T00:19:19;47.42;;;24.17;;
45338;SDS011;31071;51.478;5.710;2024-03-08T00:21:44;50.38;;;24.77;;
45338;SDS011;31071;51.478;5.710;2024-03-08T00:24:10;43.15;;;23.42;;
45338;SDS011;31071;51.478;5.710;2024-03-08T00:26:37;49.75;;;24.50;;
45338;SDS011;31071;51.478;5.710;2024-03-08T00:29:02;47.72;;;24.98;;
45338;SDS011;31071;51.478;5.710;2024-03-08T00:31:28;49.65;;;25.02;;
45338;SDS011;31071;51.478;5.710;2024-03-08T00:33:56;47.75;;;24.38;;
45338;SDS011;31071;51.478;5.710;2024-03-08T00:36:22;49.97;;;24.50;;
45338;SDS011;31071;51.478;5.710;2024-03-08T00:38:48;48.05;;;24.00;;
45338;SDS011;31071;51.478;5.710;2024-03-08T00:41:13;49.78;;;24.55;;
45338;SDS011;31071;51.478;5.710;2024-03-08T00:43:39;44.80;;;23.48;;
45338;SDS011;31071;51.478;5.710;2024-03-08T00:46:04;47.70;;;25.20;;
45338;SDS011;31071;51.478;5.710;2024-03-08T00:48:30;46.75;;;23.63;;
45338;SDS011;31071;51.478;5.710;2024-03-08T00:50:56;46.00;;;23.88;;
45338;SDS011;31071;51.478;5.710;2024-03-08T00:53:21;48.58;;;24.10;;
45338;SDS011;31071;51.478;5.710;2024-03-08T00:55:47;47.22;;;23.35;;
45338;SDS011;31071;51.478;5.710;2024-03-08T00:58:13;50.55;;;22.77;;
45338;SDS011;31071;51.478;5.710;2024-03-08T01:00:38;46.63;;;23.63;;
45338;SDS011;31071;51.478;5.710;2024-03-08T01:03:04;48.08;;;24.70;;
45338;SDS011;31071;51.478;5.710;2024-03-08T01:05:30;41.63;;;22.55;;
45338;SDS011;31071;51.478;5.710;2024-03-08T01:07:56;44.97;;;24.00;;
45338;SDS011;31071;51.478;5.710;2024-03-08T01:10:21;45.88;;;22.38;;
45338;SDS011;31071;51.478;5.710;2024-03-08T01:12:47;46.75;;;24.50;;
45338;SDS011;31071;51.478;5.710;2024-03-08T01:15:14;43.72;;;24.17;;
45338;SDS011;31071;51.478;5.710;2024-03-08T01:17:40;48.90;;;24.17;;
45338;SDS011;31071;51.478;5.710;2024-03-08T01:20:06;46.30;;;22.67;;
45338;SDS011;31071;51.478;5.710;2024-03-08T01:22:33;46.85;;;23.80;;
45338;SDS011;31071;51.478;5.710;2024-03-08T01:24:59;43.17;;;23.23;;
45338;SDS011;31071;51.478;5.710;2024-03-08T01:27:25;41.85;;;23.13;;
45338;SDS011;31071;51.478;5.710;2024-03-08T01:29:51;41.75;;;23.48;;
45338;SDS011;31071;51.478;5.710;2024-03-08T01:32:16;43.80;;;22.58;;
45338;SDS011;31071;51.478;5.710;2024-03-08T01:34:42;46.92;;;23.42;;
45338;SDS011;31071;51.478;5.710;2024-03-08T01:37:10;44.72;;;23.70;;
45338;SDS011;31071;51.478;5.710;2024-03-08T01:39:35;45.17;;;24.05;;
45338;SDS011;31071;51.478;5.710;2024-03-08T01:42:01;46.40;;;23.85;;
45338;SDS011;31071;51.478;5.710;2024-03-08T01:44:27;41.20;;;23.95;;
45338;SDS011;31071;51.478;5.710;2024-03-08T01:46:52;43.08;;;23.85;;
45338;SDS011;31071;51.478;5.710;2024-03-08T01:49:19;44.67;;;23.48;;
45338;SDS011;31071;51.478;5.710;2024-03-08T01:51:46;45.92;;;24.02;;
45338;SDS011;31071;51.478;5.710;2024-03-08T01:54:13;44.97;;;24.02;;
45338;SDS011;31071;51.478;5.710;2024-03-08T01:56:41;40.90;;;23.35;;
45338;SDS011;31071;51.478;5.710;2024-03-08T01:59:07;42.13;;;23.58;;
45338;SDS011;31071;51.478;5.710;2024-03-08T02:01:34;45.03;;;24.13;;
45338;SDS011;31071;51.478;5.710;2024-03-08T02:03:59;47.70;;;25.33;;
45338;SDS011;31071;51.478;5.710;2024-03-08T02:06:25;45.47;;;24.13;;
45338;SDS011;31071;51.478;5.710;2024-03-08T02:08:50;45.70;;;24.25;;
45338;SDS011;31071;51.478;5.710;2024-03-08T02:11:16;46.67;;;24.65;;
45338;SDS011;31071;51.478;5.710;2024-03-08T02:13:44;43.97;;;23.92;;
45338;SDS011;31071;51.478;5.710;2024-03-08T02:16:10;45.42;;;24.52;;
45338;SDS011;31071;51.478;5.710;2024-03-08T02:18:36;44.65;;;23.70;;
45338;SDS011;31071;51.478;5.710;2024-03-08T02:21:04;41.45;;;24.15;;
45338;SDS011;31071;51.478;5.710;2024-03-08T02:23:31;41.00;;;23.20;;
45338;SDS011;31071;51.478;5.710;2024-03-08T02:25:57;44.60;;;23.90;;
45338;SDS011;31071;51.478;5.710;2024-03-08T02:28:23;47.10;;;23.83;;
45338;SDS011;31071;51.478;5.710;2024-03-08T02:30:52;42.08;;;24.77;;
45338;SDS011;31071;51.478;5.710;2024-03-08T02:33:21;43.38;;;23.70;;
45338;SDS011;31071;51.478;5.710;2024-03-08T02:35:48;44.63;;;23.65;;
45338;SDS011;31071;51.478;5.710;2024-03-08T02:38:14;45.33;;;24.52;;
45338;SDS011;31071;51.478;5.710;2024-03-08T02:40:47;42.05;;;23.27;;
45338;SDS011;31071;51.478;5.710;2024-03-08T02:43:15;46.72;;;25.20;;
45338;SDS011;31071;51.478;5.710;2024-03-08T02:45:42;43.85;;;24.52;;
45338;SDS011;31071;51.478;5.710;2024-03-08T02:48:11;44.28;;;23.67;;
45338;SDS011;31071;51.478;5.710;2024-03-08T02:50:38;42.85;;;24.23;;
45338;SDS011;31071;51.478;5.710;2024-03-08T02:53:10;46.80;;;24.73;;
45338;SDS011;31071;51.478;5.710;2024-03-08T02:55:36;43.97;;;24.92;;
45338;SDS011;31071;51.478;5.710;2024-03-08T02:58:03;45.20;;;24.85;;
45338;SDS011;31071;51.478;5.710;2024-03-08T03:00:29;47.30;;;26.25;;
45338;SDS011;31071;51.478;5.710;2024-03-08T03:02:56;41.42;;;24.52;;
45338;SDS011;31071;51.478;5.710;2024-03-08T03:05:22;52.35;;;24.17;;
45338;SDS011;31071;51.478;5.710;2024-03-08T03:07:49;44.53;;;25.60;;
45338;SDS011;31071;51.478;5.710;2024-03-08T03:10:18;45.67;;;24.38;;
45338;SDS011;31071;51.478;5.710;2024-03-08T03:12:46;47.45;;;25.52;;
45338;SDS011;31071;51.478;5.710;2024-03-08T03:15:13;45.83;;;25.27;;
45338;SDS011;31071;51.478;5.710;2024-03-08T03:17:47;49.10;;;25.83;;
45338;SDS011;31071;51.478;5.710;2024-03-08T03:20:14;48.45;;;27.15;;
45338;SDS011;31071;51.478;5.710;2024-03-08T03:22:40;44.65;;;25.27;;
45338;SDS011;31071;51.478;5.710;2024-03-08T03:25:06;44.00;;;25.52;;
45338;SDS011;31071;51.478;5.710;2024-03-08T03:27:34;51.58;;;25.92;;
45338;SDS011;31071;51.478;5.710;2024-03-08T03:30:00;47.08;;;25.60;;
45338;SDS011;31071;51.478;5.710;2024-03-08T03:32:45;45.63;;;24.67;;
45338;SDS011;31071;51.478;5.710;2024-03-08T03:35:12;47.00;;;24.35;;
45338;SDS011;31071;51.478;5.710;2024-03-08T03:37:41;48.15;;;26.58;;
45338;SDS011;31071;51.478;5.710;2024-03-08T03:40:16;46.30;;;25.83;;
45338;SDS011;31071;51.478;5.710;2024-03-08T03:42:44;44.83;;;24.38;;
45338;SDS011;31071;51.478;5.710;2024-03-08T03:45:10;44.15;;;25.30;;
45338;SDS011;31071;51.478;5.710;2024-03-08T03:47:36;44.58;;;25.02;;
45338;SDS011;31071;51.478;5.710;2024-03-08T03:50:03;42.75;;;25.23;;
45338;SDS011;31071;51.478;5.710;2024-03-08T03:52:29;44.05;;;24.58;;
45338;SDS011;31071;51.478;5.710;2024-03-08T03:54:55;51.03;;;27.83;;
45338;SDS011;31071;51.478;5.710;2024-03-08T03:57:21;45.45;;;26.45;;
45338;SDS011;31071;51.478;5.710;2024-03-08T03:59:48;45.97;;;26.30;;
45338;SDS011;31071;51.478;5.710;2024-03-08T04:02:13;49.65;;;25.98;;
45338;SDS011;31071;51.478;5.710;2024-03-08T04:04:39;49.97;;;27.02;;
45338;SDS011;31071;51.478;5.710;2024-03-08T04:07:05;46.33;;;25.73;;
45338;SDS011;31071;51.478;5.710;2024-03-08T04:09:31;51.80;;;26.40;;
45338;SDS011;31071;51.478;5.710;2024-03-08T04:11:56;45.20;;;25.00;;
45338;SDS011;31071;51.478;5.710;2024-03-08T04:14:23;49.53;;;27.55;;
45338;SDS011;31071;51.478;5.710;2024-03-08T04:16:48;50.65;;;27.48;;
45338;SDS011;31071;51.478;5.710;2024-03-08T04:19:14;49.25;;;26.23;;
45338;SDS011;31071;51.478;5.710;2024-03-08T04:21:39;46.28;;;26.45;;
45338;SDS011;31071;51.478;5.710;2024-03-08T04:24:05;46.15;;;27.20;;
45338;SDS011;31071;51.478;5.710;2024-03-08T04:26:31;52.63;;;27.25;;
45338;SDS011;31071;51.478;5.710;2024-03-08T04:28:57;49.45;;;27.45;;
45338;SDS011;31071;51.478;5.710;2024-03-08T04:31:22;50.30;;;27.27;;
45338;SDS011;31071;51.478;5.710;2024-03-08T04:33:48;50.78;;;27.00;;
45338;SDS011;31071;51.478;5.710;2024-03-08T04:36:13;49.63;;;27.77;;
45338;SDS011;31071;51.478;5.710;2024-03-08T04:38:39;52.83;;;27.90;;
45338;SDS011;31071;51.478;5.710;2024-03-08T04:41:06;50.35;;;27.65;;
45338;SDS011;31071;51.478;5.710;2024-03-08T04:43:32;54.58;;;27.52;;
45338;SDS011;31071;51.478;5.710;2024-03-08T04:45:58;49.17;;;27.10;;
45338;SDS011;31071;51.478;5.710;2024-03-08T04:48:24;56.00;;;29.25;;
45338;SDS011;31071;51.478;5.710;2024-03-08T04:50:51;54.10;;;27.95;;
45338;SDS011;31071;51.478;5.710;2024-03-08T04:53:18;54.00;;;28.10;;
45338;SDS011;31071;51.478;5.710;2024-03-08T04:55:44;54.33;;;29.15;;
45338;SDS011;31071;51.478;5.710;2024-03-08T04:58:10;53.47;;;28.08;;
45338;SDS011;31071;51.478;5.710;2024-03-08T05:00:35;50.65;;;28.20;;
45338;SDS011;31071;51.478;5.710;2024-03-08T05:03:01;53.05;;;28.35;;
45338;SDS011;31071;51.478;5.710;2024-03-08T05:05:26;55.45;;;28.63;;
45338;SDS011;31071;51.478;5.710;2024-03-08T05:07:54;53.85;;;28.35;;
45338;SDS011;31071;51.478;5.710;2024-03-08T05:10:19;54.03;;;29.48;;
45338;SDS011;31071;51.478;5.710;2024-03-08T05:12:45;52.90;;;28.98;;
45338;SDS011;31071;51.478;5.710;2024-03-08T05:15:11;53.97;;;28.75;;
45338;SDS011;31071;51.478;5.710;2024-03-08T05:17:36;52.45;;;28.75;;
45338;SDS011;31071;51.478;5.710;2024-03-08T05:20:02;56.35;;;28.85;;
45338;SDS011;31071;51.478;5.710;2024-03-08T05:22:28;56.47;;;29.25;;
45338;SDS011;31071;51.478;5.710;2024-03-08T05:24:54;52.67;;;29.17;;
45338;SDS011;31071;51.478;5.710;2024-03-08T05:27:20;55.25;;;29.17;;
45338;SDS011;31071;51.478;5.710;2024-03-08T05:29:46;55.13;;;29.70;;
45338;SDS011;31071;51.478;5.710;2024-03-08T05:32:11;56.25;;;29.25;;
45338;SDS011;31071;51.478;5.710;2024-03-08T05:34:37;55.42;;;28.95;;
45338;SDS011;31071;51.478;5.710;2024-03-08T05:37:03;57.88;;;29.80;;
45338;SDS011;31071;51.478;5.710;2024-03-08T05:39:29;51.47;;;29.33;;
45338;SDS011;31071;51.478;5.710;2024-03-08T05:41:54;58.58;;;29.58;;
45338;SDS011;31071;51.478;5.710;2024-03-08T05:44:21;54.67;;;29.23;;
45338;SDS011;31071;51.478;5.710;2024-03-08T05:46:46;56.38;;;29.30;;
45338;SDS011;31071;51.478;5.710;2024-03-08T05:49:12;61.65;;;30.35;;
45338;SDS011;31071;51.478;5.710;2024-03-08T05:51:38;54.20;;;28.75;;
45338;SDS011;31071;51.478;5.710;2024-03-08T05:54:05;54.72;;;27.75;;
45338;SDS011;31071;51.478;5.710;2024-03-08T05:56:33;57.92;;;29.67;;
45338;SDS011;31071;51.478;5.710;2024-03-08T05:58:59;53.70;;;28.77;;
45338;SDS011;31071;51.478;5.710;2024-03-08T06:01:25;50.38;;;28.30;;
45338;SDS011;31071;51.478;5.710;2024-03-08T06:03:54;52.95;;;28.63;;
45338;SDS011;31071;51.478;5.710;2024-03-08T06:06:22;52.78;;;28.92;;
45338;SDS011;31071;51.478;5.710;2024-03-08T06:08:50;53.13;;;28.95;;
45338;SDS011;31071;51.478;5.710;2024-03-08T06:11:16;55.25;;;29.38;;
45338;SDS011;31071;51.478;5.710;2024-03-08T06:13:43;53.15;;;29.13;;
45338;SDS011;31071;51.478;5.710;2024-03-08T06:16:09;58.55;;;29.63;;
45338;SDS011;31071;51.478;5.710;2024-03-08T06:18:35;53.95;;;29.13;;
45338;SDS011;31071;51.478;5.710;2024-03-08T06:21:07;52.15;;;28.35;;
45338;SDS011;31071;51.478;5.710;2024-03-08T06:23:37;55.17;;;30.10;;
45338;SDS011;31071;51.478;5.710;2024-03-08T06:26:03;57.53;;;30.02;;
45338;SDS011;31071;51.478;5.710;2024-03-08T06:28:29;51.90;;;28.55;;
45338;SDS011;31071;51.478;5.710;2024-03-08T06:30:55;55.08;;;29.20;;
45338;SDS011;31071;51.478;5.710;2024-03-08T06:33:21;53.67;;;29.30;;
45338;SDS011;31071;51.478;5.710;2024-03-08T06:35:46;54.20;;;28.45;;
45338;SDS011;31071;51.478;5.710;2024-03-08T06:38:12;52.67;;;28.33;;
45338;SDS011;31071;51.478;5.710;2024-03-08T06:40:42;54.70;;;29.23;;
45338;SDS011;31071;51.478;5.710;2024-03-08T06:43:07;60.85;;;29.52;;
45338;SDS011;31071;51.478;5.710;2024-03-08T06:45:36;58.83;;;30.33;;
45338;SDS011;31071;51.478;5.710;2024-03-08T06:48:02;57.88;;;30.60;;
45338;SDS011;31071;51.478;5.710;2024-03-08T06:50:28;53.55;;;28.25;;
45338;SDS011;31071;51.478;5.710;2024-03-08T06:52:54;53.55;;;28.48;;
45338;SDS011;31071;51.478;5.710;2024-03-08T06:55:20;49.00;;;27.17;;
45338;SDS011;31071;51.478;5.710;2024-03-08T06:57:46;54.72;;;28.75;;
45338;SDS011;31071;51.478;5.710;2024-03-08T07:00:11;52.50;;;28.13;;
45338;SDS011;31071;51.478;5.710;2024-03-08T07:02:41;49.38;;;26.55;;
45338;SDS011;31071;51.478;5.710;2024-03-08T07:05:07;49.88;;;27.17;;
45338;SDS011;31071;51.478;5.710;2024-03-08T07:07:35;51.13;;;28.15;;
45338;SDS011;31071;51.478;5.710;2024-03-08T07:10:01;59.22;;;28.75;;
45338;SDS011;31071;51.478;5.710;2024-03-08T07:12:26;48.75;;;26.98;;
45338;SDS011;31071;51.478;5.710;2024-03-08T07:14:52;53.10;;;27.75;;
45338;SDS011;31071;51.478;5.710;2024-03-08T07:17:18;49.42;;;27.52;;
45338;SDS011;31071;51.478;5.710;2024-03-08T07:19:43;50.08;;;26.52;;
45338;SDS011;31071;51.478;5.710;2024-03-08T07:22:10;52.60;;;27.38;;
45338;SDS011;31071;51.478;5.710;2024-03-08T07:24:36;47.25;;;25.85;;
45338;SDS011;31071;51.478;5.710;2024-03-08T07:27:02;48.20;;;26.60;;
45338;SDS011;31071;51.478;5.710;2024-03-08T07:29:33;49.75;;;27.52;;
45338;SDS011;31071;51.478;5.710;2024-03-08T07:32:00;48.15;;;25.65;;
45338;SDS011;31071;51.478;5.710;2024-03-08T07:34:37;53.17;;;26.42;;
45338;SDS011;31071;51.478;5.710;2024-03-08T07:37:04;45.65;;;26.50;;
45338;SDS011;31071;51.478;5.710;2024-03-08T07:39:31;44.33;;;25.42;;
45338;SDS011;31071;51.478;5.710;2024-03-08T07:41:57;46.35;;;25.95;;
45338;SDS011;31071;51.478;5.710;2024-03-08T07:44:22;46.38;;;26.15;;
45338;SDS011;31071;51.478;5.710;2024-03-08T07:46:48;47.90;;;26.48;;
45338;SDS011;31071;51.478;5.710;2024-03-08T07:49:14;49.58;;;25.85;;
45338;SDS011;31071;51.478;5.710;2024-03-08T07:51:41;46.47;;;26.10;;
45338;SDS011;31071;51.478;5.710;2024-03-08T07:54:06;46.13;;;26.30;;
45338;SDS011;31071;51.478;5.710;2024-03-08T07:56:34;43.70;;;25.35;;
45338;SDS011;31071;51.478;5.710;2024-03-08T07:59:01;44.53;;;25.80;;
45338;SDS011;31071;51.478;5.710;2024-03-08T08:01:30;51.97;;;26.95;;
45338;SDS011;31071;51.478;5.710;2024-03-08T08:03:56;47.22;;;26.10;;
45338;SDS011;31071;51.478;5.710;2024-03-08T08:06:22;49.60;;;27.98;;
45338;SDS011;31071;51.478;5.710;2024-03-08T08:08:48;50.42;;;26.83;;
45338;SDS011;31071;51.478;5.710;2024-03-08T08:11:14;45.05;;;25.52;;
45338;SDS011;31071;51.478;5.710;2024-03-08T08:13:40;46.63;;;25.75;;
45338;SDS011;31071;51.478;5.710;2024-03-08T08:16:08;47.13;;;25.83;;
45338;SDS011;31071;51.478;5.710;2024-03-08T08:18:35;42.63;;;25.15;;
45338;SDS011;31071;51.478;5.710;2024-03-08T08:21:05;45.70;;;24.50;;
45338;SDS011;31071;51.478;5.710;2024-03-08T08:23:35;48.38;;;26.92;;
45338;SDS011;31071;51.478;5.710;2024-03-08T08:26:01;47.97;;;26.73;;
45338;SDS011;31071;51.478;5.710;2024-03-08T08:28:29;45.80;;;24.80;;
45338;SDS011;31071;51.478;5.710;2024-03-08T08:30:56;43.33;;;24.98;;
45338;SDS011;31071;51.478;5.710;2024-03-08T08:33:21;47.25;;;24.52;;
45338;SDS011;31071;51.478;5.710;2024-03-08T08:35:47;46.35;;;24.75;;
45338;SDS011;31071;51.478;5.710;2024-03-08T08:38:13;46.00;;;25.23;;
45338;SDS011;31071;51.478;5.710;2024-03-08T08:40:41;47.08;;;25.55;;
45338;SDS011;31071;51.478;5.710;2024-03-08T08:43:07;44.67;;;23.88;;
45338;SDS011;31071;51.478;5.710;2024-03-08T08:45:32;44.75;;;24.58;;
45338;SDS011;31071;51.478;5.710;2024-03-08T08:47:58;40.60;;;24.35;;
45338;SDS011;31071;51.478;5.710;2024-03-08T08:50:25;39.97;;;22.67;;
45338;SDS011;31071;51.478;5.710;2024-03-08T08:52:53;41.78;;;24.38;;
45338;SDS011;31071;51.478;5.710;2024-03-08T08:55:19;39.42;;;22.88;;
45338;SDS011;31071;51.478;5.710;2024-03-08T08:57:51;39.53;;;22.60;;
45338;SDS011;31071;51.478;5.710;2024-03-08T09:00:26;36.92;;;22.90;;
45338;SDS011;31071;51.478;5.710;2024-03-08T09:02:59;35.45;;;21.75;;
45338;SDS011;31071;51.478;5.710;2024-03-08T09:05:27;34.92;;;22.20;;
45338;SDS011;31071;51.478;5.710;2024-03-08T09:07:54;31.60;;;21.20;;
45338;SDS011;31071;51.478;5.710;2024-03-08T09:10:21;32.50;;;22.10;;
45338;SDS011;31071;51.478;5.710;2024-03-08T09:12:47;35.33;;;21.85;;
45338;SDS011;31071;51.478;5.710;2024-03-08T09:22:34;32.53;;;20.90;;
45338;SDS011;31071;51.478;5.710;2024-03-08T09:25:09;32.17;;;21.83;;
45338;SDS011;31071;51.478;5.710;2024-03-08T09:27:41;32.95;;;22.02;;
45338;SDS011;31071;51.478;5.710;2024-03-08T09:30:07;32.35;;;20.92;;
45338;SDS011;31071;51.478;5.710;2024-03-08T09:32:33;30.23;;;21.55;;
45338;SDS011;31071;51.478;5.710;2024-03-08T09:34:58;32.50;;;21.38;;
45338;SDS011;31071;51.478;5.710;2024-03-08T09:37:26;33.35;;;21.30;;
45338;SDS011;31071;51.478;5.710;2024-03-08T09:39:58;32.47;;;20.27;;
45338;SDS011;31071;51.478;5.710;2024-03-08T09:42:29;28.58;;;20.75;;
45338;SDS011;31071;51.478;5.710;2024-03-08T09:44:57;28.55;;;19.60;;
45338;SDS011;31071;51.478;5.710;2024-03-08T09:47:24;32.70;;;21.08;;
45338;SDS011;31071;51.478;5.710;2024-03-08T09:49:54;29.80;;;20.55;;
45338;SDS011;31071;51.478;5.710;2024-03-08T09:52:19;30.25;;;20.88;;
45338;SDS011;31071;51.478;5.710;2024-03-08T09:54:45;31.55;;;21.65;;
45338;SDS011;31071;51.478;5.710;2024-03-08T09:57:15;31.92;;;22.63;;
45338;SDS011;31071;51.478;5.710;2024-03-08T09:59:45;29.08;;;19.50;;
45338;SDS011;31071;51.478;5.710;2024-03-08T10:02:14;30.48;;;20.60;;
45338;SDS011;31071;51.478;5.710;2024-03-08T10:04:40;31.15;;;20.52;;
45338;SDS011;31071;51.478;5.710;2024-03-08T10:07:11;28.73;;;20.77;;
45338;SDS011;31071;51.478;5.710;2024-03-08T10:09:37;28.08;;;20.30;;
45338;SDS011;31071;51.478;5.710;2024-03-08T10:12:04;29.88;;;20.48;;
45338;SDS011;31071;51.478;5.710;2024-03-08T10:14:30;30.00;;;20.77;;
45338;SDS011;31071;51.478;5.710;2024-03-08T10:16:59;31.55;;;20.98;;
45338;SDS011;31071;51.478;5.710;2024-03-08T10:19:26;26.85;;;20.33;;
45338;SDS011;31071;51.478;5.710;2024-03-08T10:21:54;27.90;;;21.17;;
45338;SDS011;31071;51.478;5.710;2024-03-08T10:24:22;26.85;;;20.63;;
45338;SDS011;31071;51.478;5.710;2024-03-08T10:27:01;29.92;;;20.42;;
45338;SDS011;31071;51.478;5.710;2024-03-08T10:29:33;27.92;;;20.60;;
45338;SDS011;31071;51.478;5.710;2024-03-08T10:32:02;27.77;;;19.45;;
45338;SDS011;31071;51.478;5.710;2024-03-08T10:34:30;30.80;;;21.20;;
45338;SDS011;31071;51.478;5.710;2024-03-08T10:36:56;29.88;;;20.83;;
45338;SDS011;31071;51.478;5.710;2024-03-08T10:39:30;30.75;;;20.33;;
45338;SDS011;31071;51.478;5.710;2024-03-08T10:42:02;25.35;;;18.92;;
45338;SDS011;31071;51.478;5.710;2024-03-08T10:49:30;29.20;;;20.77;;
45338;SDS011;31071;51.478;5.710;2024-03-08T10:51:59;26.67;;;19.33;;
45338;SDS011;31071;51.478;5.710;2024-03-08T10:54:28;25.98;;;19.27;;
45338;SDS011;31071;51.478;5.710;2024-03-08T10:56:56;26.30;;;19.75;;
45338;SDS011;31071;51.478;5.710;2024-03-08T10:59:22;25.27;;;20.08;;
45338;SDS011;31071;51.478;5.710;2024-03-08T11:01:52;23.95;;;18.92;;
45338;SDS011;31071;51.478;5.710;2024-03-08T11:04:19;24.52;;;17.50;;
45338;SDS011;31071;51.478;5.710;2024-03-08T11:06:47;20.73;;;16.42;;
45338;SDS011;31071;51.478;5.710;2024-03-08T11:09:36;21.95;;;15.90;;
45338;SDS011;31071;51.478;5.710;2024-03-08T11:12:19;24.73;;;17.90;;
45338;SDS011;31071;51.478;5.710;2024-03-08T11:14:50;20.73;;;15.68;;
45338;SDS011;31071;51.478;5.710;2024-03-08T11:18:00;21.05;;;15.65;;
45338;SDS011;31071;51.478;5.710;2024-03-08T11:20:14;18.65;;;14.18;;
45338;SDS011;31071;51.478;5.710;2024-03-08T11:22:47;17.67;;;14.00;;
45338;SDS011;31071;51.478;5.710;2024-03-08T11:25:36;19.15;;;13.93;;
45338;SDS011;31071;51.478;5.710;2024-03-08T11:28:17;17.88;;;13.43;;
45338;SDS011;31071;51.478;5.710;2024-03-08T11:33:24;18.98;;;13.50;;
45338;SDS011;31071;51.478;5.710;2024-03-08T11:36:03;18.67;;;13.73;;
45338;SDS011;31071;51.478;5.710;2024-03-08T11:38:42;17.80;;;13.48;;
45338;SDS011;31071;51.478;5.710;2024-03-08T11:41:16;18.73;;;13.93;;
45338;SDS011;31071;51.478;5.710;2024-03-08T11:43:46;18.83;;;14.52;;
45338;SDS011;31071;51.478;5.710;2024-03-08T11:46:13;17.58;;;13.77;;
45338;SDS011;31071;51.478;5.710;2024-03-08T11:48:40;19.15;;;14.32;;
45338;SDS011;31071;51.478;5.710;2024-03-08T11:51:07;18.50;;;14.10;;
45338;SDS011;31071;51.478;5.710;2024-03-08T11:53:33;18.10;;;13.75;;
45338;SDS011;31071;51.478;5.710;2024-03-08T11:58:37;18.13;;;14.27;;
45338;SDS011;31071;51.478;5.710;2024-03-08T12:01:06;16.83;;;13.50;;
45338;SDS011;31071;51.478;5.710;2024-03-08T12:03:42;21.08;;;14.38;;
45338;SDS011;31071;51.478;5.710;2024-03-08T12:06:08;19.45;;;14.27;;
45338;SDS011;31071;51.478;5.710;2024-03-08T12:08:37;15.88;;;13.05;;
45338;SDS011;31071;51.478;5.710;2024-03-08T12:11:06;17.95;;;13.65;;
45338;SDS011;31071;51.478;5.710;2024-03-08T12:13:35;17.88;;;13.25;;
45338;SDS011;31071;51.478;5.710;2024-03-08T12:16:04;16.40;;;12.82;;
45338;SDS011;31071;51.478;5.710;2024-03-08T12:18:33;18.88;;;13.32;;
45338;SDS011;31071;51.478;5.710;2024-03-08T12:21:04;17.95;;;13.65;;
45338;SDS011;31071;51.478;5.710;2024-03-08T12:23:34;18.75;;;13.13;;
45338;SDS011;31071;51.478;5.710;2024-03-08T12:26:13;20.10;;;13.38;;
45338;SDS011;31071;51.478;5.710;2024-03-08T12:28:41;18.23;;;14.07;;
45338;SDS011;31071;51.478;5.710;2024-03-08T12:31:09;16.25;;;12.48;;
45338;SDS011;31071;51.478;5.710;2024-03-08T12:33:37;17.55;;;13.65;;
45338;SDS011;31071;51.478;5.710;2024-03-08T12:36:16;16.85;;;12.80;;
45338;SDS011;31071;51.478;5.710;2024-03-08T12:38:43;19.17;;;13.73;;
45338;SDS011;31071;51.478;5.710;2024-03-08T12:41:13;16.15;;;13.10;;
45338;SDS011;31071;51.478;5.710;2024-03-08T12:43:42;19.15;;;13.20;;
45338;SDS011;31071;51.478;5.710;2024-03-08T12:46:12;17.92;;;12.48;;
45338;SDS011;31071;51.478;5.710;2024-03-08T12:48:38;16.65;;;12.73;;
45338;SDS011;31071;51.478;5.710;2024-03-08T12:51:06;19.95;;;12.90;;
45338;SDS011;31071;51.478;5.710;2024-03-08T12:53:32;18.95;;;13.40;;
45338;SDS011;31071;51.478;5.710;2024-03-08T13:01:47;14.95;;;12.15;;
45338;SDS011;31071;51.478;5.710;2024-03-08T13:04:12;17.40;;;12.40;;
45338;SDS011;31071;51.478;5.710;2024-03-08T13:06:38;15.98;;;12.82;;
45338;SDS011;31071;51.478;5.710;2024-03-08T13:09:03;16.75;;;12.90;;
45338;SDS011;31071;51.478;5.710;2024-03-08T13:11:30;16.10;;;12.65;;
45338;SDS011;31071;51.478;5.710;2024-03-08T13:14:01;18.00;;;13.05;;
45338;SDS011;31071;51.478;5.710;2024-03-08T13:16:29;16.33;;;12.50;;
45338;SDS011;31071;51.478;5.710;2024-03-08T13:18:54;15.60;;;13.20;;
45338;SDS011;31071;51.478;5.710;2024-03-08T13:21:22;16.05;;;12.38;;
45338;SDS011;31071;51.478;5.710;2024-03-08T13:23:49;16.00;;;12.43;;
45338;SDS011;31071;51.478;5.710;2024-03-08T13:26:15;16.05;;;12.40;;
45338;SDS011;31071;51.478;5.710;2024-03-08T13:28:42;16.65;;;12.25;;
45338;SDS011;31071;51.478;5.710;2024-03-08T13:31:11;16.50;;;12.55;;
45338;SDS011;31071;51.478;5.710;2024-03-08T13:33:37;15.77;;;12.50;;
45338;SDS011;31071;51.478;5.710;2024-03-08T13:36:04;15.73;;;11.65;;
45338;SDS011;31071;51.478;5.710;2024-03-08T13:38:31;15.68;;;12.88;;
45338;SDS011;31071;51.478;5.710;2024-03-08T13:40:58;14.90;;;12.45;;
45338;SDS011;31071;51.478;5.710;2024-03-08T13:43:24;15.35;;;11.80;;
45338;SDS011;31071;51.478;5.710;2024-03-08T13:45:50;18.63;;;12.18;;
45338;SDS011;31071;51.478;5.710;2024-03-08T13:48:17;18.50;;;13.32;;
45338;SDS011;31071;51.478;5.710;2024-03-08T13:50:43;18.20;;;13.07;;
45338;SDS011;31071;51.478;5.710;2024-03-08T13:53:09;18.85;;;13.43;;
45338;SDS011;31071;51.478;5.710;2024-03-08T13:55:35;17.95;;;13.50;;
45338;SDS011;31071;51.478;5.710;2024-03-08T13:58:00;18.42;;;13.88;;
45338;SDS011;31071;51.478;5.710;2024-03-08T14:00:27;17.08;;;13.07;;
45338;SDS011;31071;51.478;5.710;2024-03-08T14:02:58;17.42;;;12.52;;
45338;SDS011;31071;51.478;5.710;2024-03-08T14:05:24;17.40;;;13.00;;
45338;SDS011;31071;51.478;5.710;2024-03-08T14:07:49;17.75;;;12.32;;
45338;SDS011;31071;51.478;5.710;2024-03-08T14:10:15;18.30;;;13.18;;
45338;SDS011;31071;51.478;5.710;2024-03-08T14:12:44;18.05;;;12.20;;
45338;SDS011;31071;51.478;5.710;2024-03-08T14:15:13;17.27;;;12.20;;
45338;SDS011;31071;51.478;5.710;2024-03-08T14:17:38;16.25;;;11.40;;
45338;SDS011;31071;51.478;5.710;2024-03-08T14:20:04;17.17;;;11.68;;
45338;SDS011;31071;51.478;5.710;2024-03-08T14:22:31;17.02;;;11.98;;
45338;SDS011;31071;51.478;5.710;2024-03-08T14:24:56;16.38;;;11.15;;
45338;SDS011;31071;51.478;5.710;2024-03-08T14:27:22;17.05;;;11.60;;
45338;SDS011;31071;51.478;5.710;2024-03-08T14:29:47;19.20;;;11.45;;
45338;SDS011;31071;51.478;5.710;2024-03-08T14:32:13;16.10;;;11.05;;
45338;SDS011;31071;51.478;5.710;2024-03-08T14:34:39;14.50;;;10.70;;
45338;SDS011;31071;51.478;5.710;2024-03-08T14:37:05;15.75;;;11.75;;
45338;SDS011;31071;51.478;5.710;2024-03-08T14:39:36;16.88;;;11.43;;
45338;SDS011;31071;51.478;5.710;2024-03-08T14:42:02;15.30;;;10.82;;
45338;SDS011;31071;51.478;5.710;2024-03-08T14:44:28;15.32;;;11.25;;
45338;SDS011;31071;51.478;5.710;2024-03-08T14:46:58;14.73;;;11.30;;